createdAt,value
2018-03-07T00:01:44.917Z,79.82
2018-03-07T00:04:12.383Z,79.62
2018-03-07T00:06:39.767Z,79.73
2018-03-07T00:09:07.164Z,79.56
2018-03-07T00:11:34.611Z,79.19
2018-03-07T00:14:02.020Z,79.00
2018-03-07T00:16:29.467Z,79.22
2018-03-07T00:18:56.873Z,79.37
2018-03-07T00:21:24.480Z,79.40
2018-03-07T00:23:51.901Z,79.66
2018-03-07T00:26:19.320Z,79.71
2018-03-07T00:28:46.745Z,79.55
2018-03-07T00:31:14.159Z,79.64
2018-03-07T00:33:41.571Z,79.68
2018-03-07T00:36:09.020Z,79.48
2018-03-07T00:38:36.431Z,79.24
2018-03-07T00:41:03.845Z,79.39
2018-03-07T00:43:31.239Z,79.10
2018-03-07T00:45:58.645Z,79.06
2018-03-07T00:48:26.057Z,78.89
2018-03-07T00:50:53.483Z,78.60
2018-03-07T00:53:20.915Z,78.65
2018-03-07T00:55:48.493Z,78.70
2018-03-07T00:58:15.876Z,78.97
2018-03-07T01:00:43.259Z,79.03
2018-03-07T01:03:10.713Z,79.13
2018-03-07T01:05:38.158Z,78.98
2018-03-07T01:08:05.573Z,78.98
2018-03-07T01:10:33.017Z,78.85
2018-03-07T01:13:00.438Z,78.38
2018-03-07T01:15:27.819Z,78.16
2018-03-07T01:17:55.908Z,77.72
2018-03-07T01:20:23.290Z,77.34
2018-03-07T01:22:50.913Z,76.92
2018-03-07T01:25:18.346Z,76.31
2018-03-07T01:27:45.785Z,75.97
2018-03-07T01:30:13.261Z,76.00
2018-03-07T01:32:40.665Z,76.09
2018-03-07T01:37:40.885Z,75.65
2018-03-07T01:40:08.366Z,75.63
2018-03-07T01:42:35.761Z,75.42
2018-03-07T01:45:03.212Z,75.24
2018-03-07T01:47:30.599Z,74.96
2018-03-07T01:49:58.247Z,75.00
2018-03-07T01:52:25.858Z,74.93
2018-03-07T01:54:53.303Z,74.89
2018-03-07T01:57:20.708Z,74.96
2018-03-07T01:59:48.110Z,74.83
2018-03-07T02:02:15.544Z,75.05
2018-03-07T02:04:42.932Z,75.03
2018-03-07T02:07:10.374Z,74.85
2018-03-07T02:09:37.767Z,74.94
2018-03-07T02:12:05.147Z,75.04
2018-03-07T02:14:32.589Z,74.85
2018-03-07T02:16:59.969Z,74.97
2018-03-07T02:19:27.369Z,74.85
2018-03-07T02:21:55.022Z,74.85
2018-03-07T02:24:22.429Z,74.97
2018-03-07T02:26:49.852Z,74.89
2018-03-07T02:29:17.239Z,74.74
2018-03-07T02:31:44.638Z,74.50
2018-03-07T02:34:12.139Z,74.06
2018-03-07T02:36:39.551Z,73.95
2018-03-07T02:39:06.932Z,73.54
2018-03-07T02:41:34.319Z,73.07
2018-03-07T02:44:01.743Z,73.04
2018-03-07T02:46:29.177Z,72.96
2018-03-07T02:48:56.559Z,72.73
2018-03-07T02:51:23.952Z,72.64
2018-03-07T02:53:51.537Z,72.44
2018-03-07T02:56:18.950Z,72.26
2018-03-07T02:58:46.336Z,72.27
2018-03-07T03:01:13.750Z,72.25
2018-03-07T03:03:41.156Z,72.02
2018-03-07T03:06:09.281Z,71.50
2018-03-07T03:08:36.843Z,70.99
2018-03-07T03:11:04.280Z,70.81
2018-03-07T03:13:31.696Z,70.58
2018-03-07T03:15:59.116Z,70.55
2018-03-07T03:18:26.554Z,70.72
2018-03-07T03:20:53.980Z,70.83
2018-03-07T03:23:21.640Z,70.70
2018-03-07T03:25:49.032Z,70.78
2018-03-07T03:28:16.500Z,70.82
2018-03-07T03:30:43.938Z,70.72
2018-03-07T03:33:11.351Z,70.58
2018-03-07T03:35:38.756Z,70.32
2018-03-07T03:38:07.125Z,70.54
2018-03-07T03:40:35.745Z,70.81
2018-03-07T03:43:03.268Z,70.77
2018-03-07T03:45:31.285Z,70.82
2018-03-07T03:47:58.705Z,70.93
2018-03-07T03:50:26.120Z,71.05
2018-03-07T03:52:53.509Z,70.65
2018-03-07T03:55:21.111Z,70.71
2018-03-07T03:57:48.546Z,70.85
2018-03-07T04:00:15.963Z,70.87
2018-03-07T04:02:43.535Z,70.98
2018-03-07T04:05:10.940Z,71.19
2018-03-07T04:07:38.372Z,71.64
2018-03-07T04:10:05.752Z,71.64
2018-03-07T04:12:33.209Z,71.58
2018-03-07T04:15:00.624Z,71.44
2018-03-07T04:17:28.020Z,71.17
2018-03-07T04:19:55.448Z,71.10
2018-03-07T04:22:22.833Z,71.03
2018-03-07T04:24:50.537Z,70.97
2018-03-07T04:27:17.937Z,71.32
2018-03-07T04:29:45.352Z,70.93
2018-03-07T04:32:12.768Z,70.39
2018-03-07T04:34:40.204Z,70.71
2018-03-07T04:37:07.584Z,70.58
2018-03-07T04:39:35.024Z,70.37
2018-03-07T04:42:02.427Z,70.31
2018-03-07T04:44:29.838Z,70.29
2018-03-07T04:46:57.227Z,70.22
2018-03-07T04:49:24.765Z,70.05
2018-03-07T04:51:52.189Z,70.00
2018-03-07T04:54:19.621Z,70.20
2018-03-07T04:56:47.029Z,70.56
2018-03-07T04:59:14.424Z,70.58
2018-03-07T05:01:41.811Z,70.30
2018-03-07T05:04:09.269Z,70.33
2018-03-07T05:06:36.731Z,70.41
2018-03-07T05:09:04.153Z,70.68
2018-03-07T05:11:31.555Z,70.82
2018-03-07T05:13:59.200Z,70.80
2018-03-07T05:16:26.571Z,70.59
2018-03-07T05:18:54.031Z,70.59
2018-03-07T05:21:21.464Z,70.51
2018-03-07T05:23:49.122Z,70.46
2018-03-07T05:26:16.553Z,70.28
2018-03-07T05:28:43.940Z,70.39
2018-03-07T05:31:11.385Z,70.25
2018-03-07T05:33:38.826Z,70.25
2018-03-07T05:36:06.205Z,70.47
2018-03-07T05:38:33.610Z,70.48
2018-03-07T05:41:01.012Z,70.52
2018-03-07T05:43:28.470Z,70.84
2018-03-07T05:45:55.901Z,70.65
2018-03-07T05:48:23.376Z,70.06
2018-03-07T05:50:50.837Z,69.89
2018-03-07T05:53:18.268Z,69.27
2018-03-07T05:55:45.869Z,68.84
2018-03-07T05:58:13.311Z,68.31
2018-03-07T06:00:40.693Z,68.57
2018-03-07T06:03:08.140Z,68.08
2018-03-07T06:05:35.565Z,67.81
2018-03-07T06:08:03.005Z,67.59
2018-03-07T06:10:30.436Z,67.13
2018-03-07T06:12:57.963Z,67.48
2018-03-07T06:15:25.555Z,67.17
2018-03-07T06:17:53.000Z,66.80
2018-03-07T06:20:20.435Z,67.09
2018-03-07T06:22:47.838Z,67.08
2018-03-07T06:25:15.450Z,67.44
2018-03-07T06:27:42.985Z,67.68
2018-03-07T06:30:10.400Z,67.90
2018-03-07T06:32:37.796Z,67.95
2018-03-07T06:35:05.193Z,68.06
2018-03-07T06:37:32.589Z,68.09
2018-03-07T06:40:00.062Z,68.15
2018-03-07T06:42:27.461Z,68.08
2018-03-07T06:44:54.915Z,67.97
2018-03-07T06:47:22.350Z,68.08
2018-03-07T06:49:49.778Z,67.93
2018-03-07T06:52:17.252Z,67.89
2018-03-07T06:54:44.682Z,67.33
2018-03-07T06:57:12.472Z,67.10
2018-03-07T06:59:41.001Z,66.66
2018-03-07T07:02:08.414Z,66.37
2018-03-07T07:04:35.861Z,66.21
2018-03-07T07:07:03.243Z,65.85
2018-03-07T07:09:30.659Z,65.53
2018-03-07T07:11:58.079Z,65.20
2018-03-07T07:14:25.584Z,64.69
2018-03-07T07:16:53.143Z,64.67
2018-03-07T07:19:21.408Z,64.89
2018-03-07T07:21:48.813Z,64.48
2018-03-07T07:24:16.221Z,63.84
2018-03-07T07:26:43.631Z,63.88
2018-03-07T07:29:11.028Z,63.93
2018-03-07T07:31:38.523Z,63.33
2018-03-07T07:34:06.198Z,62.85
2018-03-07T07:36:33.612Z,62.54
2018-03-07T07:39:01.068Z,62.01
2018-03-07T07:41:28.520Z,61.65
2018-03-07T07:43:56.139Z,61.39
2018-03-07T07:46:23.575Z,61.53
2018-03-07T07:48:51.538Z,61.67
2018-03-07T07:51:18.997Z,61.74
2018-03-07T07:53:46.499Z,61.50
2018-03-07T07:56:13.938Z,61.59
2018-03-07T07:58:41.357Z,61.65
2018-03-07T08:01:09.310Z,61.44
2018-03-07T08:03:36.719Z,61.16
2018-03-07T08:06:04.108Z,60.88
2018-03-07T08:08:31.558Z,61.02
2018-03-07T08:10:58.991Z,60.82
2018-03-07T08:13:26.405Z,60.40
2018-03-07T08:15:53.796Z,60.35
2018-03-07T08:18:21.230Z,60.00
2018-03-07T08:20:48.617Z,60.01
2018-03-07T08:23:16.496Z,60.26
2018-03-07T08:25:43.925Z,59.91
2018-03-07T08:28:11.337Z,60.14
2018-03-07T08:30:38.915Z,60.06
2018-03-07T08:33:06.312Z,59.67
2018-03-07T08:35:33.768Z,59.46
2018-03-07T08:38:02.034Z,59.14
2018-03-07T08:40:29.490Z,59.44
2018-03-07T08:42:56.942Z,59.81
2018-03-07T08:45:25.766Z,59.01
2018-03-07T08:47:53.309Z,58.25
2018-03-07T08:50:20.760Z,58.48
2018-03-07T08:52:48.171Z,58.67
2018-03-07T08:55:15.638Z,58.79
2018-03-07T08:57:43.117Z,58.61
2018-03-07T09:00:10.560Z,58.84
2018-03-07T09:02:37.962Z,59.08
2018-03-07T09:05:05.366Z,59.10
2018-03-07T09:07:32.817Z,59.33
2018-03-07T09:10:00.207Z,59.63
2018-03-07T09:12:27.713Z,59.61
2018-03-07T09:14:55.181Z,59.92
2018-03-07T09:17:22.617Z,59.80
2018-03-07T09:19:50.104Z,59.69
2018-03-07T09:22:17.551Z,59.81
2018-03-07T09:24:45.282Z,59.93
2018-03-07T09:27:12.758Z,59.68
2018-03-07T09:29:40.197Z,59.68
2018-03-07T09:32:07.642Z,59.45
2018-03-07T09:34:35.190Z,59.53
2018-03-07T09:37:02.761Z,58.83
2018-03-07T09:39:30.183Z,58.23
2018-03-07T09:41:57.586Z,58.04
2018-03-07T09:44:25.001Z,58.29
2018-03-07T09:46:52.407Z,58.00
2018-03-07T09:49:19.853Z,56.83
2018-03-07T09:51:47.472Z,53.21
2018-03-07T09:54:14.868Z,52.00
2018-03-07T09:56:42.282Z,52.19
2018-03-07T09:59:09.679Z,50.64
2018-03-07T10:01:37.116Z,48.15
2018-03-07T10:04:04.588Z,48.74
2018-03-07T10:06:32.040Z,47.84
2018-03-07T10:08:59.488Z,46.56
2018-03-07T10:11:26.923Z,45.91
2018-03-07T10:13:54.312Z,45.69
2018-03-07T10:16:21.778Z,46.00
2018-03-07T10:18:49.195Z,46.10
2018-03-07T10:21:16.812Z,45.72
2018-03-07T10:23:44.663Z,46.47
2018-03-07T10:26:12.280Z,46.83
2018-03-07T10:28:39.761Z,46.99
2018-03-07T10:31:07.152Z,47.62
2018-03-07T10:33:34.573Z,47.20
2018-03-07T10:36:02.031Z,46.72
2018-03-07T10:38:29.622Z,46.33
2018-03-07T10:40:57.016Z,46.49
2018-03-07T10:43:24.465Z,46.57
2018-03-07T10:45:51.861Z,46.38
2018-03-07T10:48:19.329Z,46.38
2018-03-07T10:50:46.783Z,47.03
2018-03-07T10:53:14.346Z,46.12
2018-03-07T10:55:41.803Z,43.70
2018-03-07T10:58:09.215Z,43.15
2018-03-07T11:00:38.260Z,44.70
2018-03-07T11:03:05.647Z,45.37
2018-03-07T11:05:33.119Z,45.44
2018-03-07T11:08:00.554Z,46.34
2018-03-07T11:10:27.993Z,46.65
2018-03-07T11:12:55.463Z,46.85
2018-03-07T11:15:22.863Z,46.15
2018-03-07T11:17:50.346Z,44.71
2018-03-07T11:20:17.983Z,43.86
2018-03-07T11:22:45.366Z,44.14
2018-03-07T11:25:12.816Z,43.96
2018-03-07T11:27:40.207Z,44.88
2018-03-07T11:30:07.619Z,45.31
2018-03-07T11:32:35.051Z,45.60
2018-03-07T11:35:02.482Z,43.14
2018-03-07T11:37:29.941Z,41.45
2018-03-07T11:39:57.371Z,40.30
2018-03-07T11:42:24.837Z,39.11
2018-03-07T11:44:52.289Z,38.55
2018-03-07T11:47:19.858Z,38.13
2018-03-07T11:49:47.263Z,38.53
2018-03-07T11:52:14.662Z,39.06
2018-03-07T11:54:42.082Z,38.03
2018-03-07T11:57:09.528Z,36.84
2018-03-07T11:59:37.062Z,36.48
2018-03-07T12:02:04.482Z,36.37
2018-03-07T12:04:35.023Z,36.92
2018-03-07T12:07:02.468Z,36.12
2018-03-07T12:09:29.919Z,35.11
2018-03-07T12:11:57.327Z,34.42
2018-03-07T12:14:24.787Z,34.94
2018-03-07T12:16:52.202Z,35.33
2018-03-07T12:19:19.756Z,36.52
2018-03-07T12:21:47.216Z,36.84
2018-03-07T12:24:14.796Z,35.59
2018-03-07T12:26:42.560Z,33.97
2018-03-07T12:29:09.990Z,33.81
2018-03-07T12:31:37.425Z,34.78
2018-03-07T12:34:04.866Z,34.22
2018-03-07T12:36:32.294Z,33.30
2018-03-07T12:38:59.730Z,34.60
2018-03-07T12:41:27.132Z,35.78
2018-03-07T12:43:54.576Z,35.96
2018-03-07T12:46:22.054Z,36.26
2018-03-07T12:48:49.559Z,37.17
2018-03-07T12:51:17.003Z,37.71
2018-03-07T12:53:44.420Z,38.24
2018-03-07T12:56:11.950Z,38.96
2018-03-07T12:58:39.353Z,38.89
2018-03-07T13:01:06.860Z,37.89
2018-03-07T13:03:34.261Z,36.75
2018-03-07T13:06:01.779Z,34.94
2018-03-07T13:08:29.226Z,35.46
2018-03-07T13:10:57.207Z,35.25
2018-03-07T13:13:24.645Z,35.05
2018-03-07T13:15:52.199Z,36.32
2018-03-07T13:18:19.614Z,37.85
2018-03-07T13:20:48.226Z,39.32
2018-03-07T13:23:15.759Z,40.69
2018-03-07T13:25:43.202Z,42.67
2018-03-07T13:28:10.629Z,44.74
2018-03-07T13:30:38.028Z,43.57
2018-03-07T13:33:05.467Z,41.98
2018-03-07T13:35:32.950Z,40.58
2018-03-07T13:38:00.394Z,39.48
2018-03-07T13:40:27.956Z,38.26
2018-03-07T13:42:55.411Z,38.28
2018-03-07T13:45:22.845Z,40.00
2018-03-07T13:47:50.230Z,41.08
2018-03-07T13:50:17.682Z,41.96
2018-03-07T13:52:45.081Z,42.19
2018-03-07T13:55:12.526Z,43.15
2018-03-07T13:57:40.064Z,43.26
2018-03-07T14:00:07.460Z,44.50
2018-03-07T14:02:35.008Z,45.25
2018-03-07T14:05:02.412Z,47.83
2018-03-07T14:07:29.821Z,51.99
2018-03-07T14:09:57.243Z,53.54
2018-03-07T14:12:24.682Z,53.97
2018-03-07T14:14:52.103Z,53.62
2018-03-07T14:17:19.548Z,54.09
2018-03-07T14:19:46.987Z,52.65
2018-03-07T14:22:14.407Z,52.10
2018-03-07T14:24:41.992Z,51.67
2018-03-07T14:27:09.872Z,53.09
2018-03-07T14:29:37.307Z,53.53
2018-03-07T14:32:04.712Z,53.22
2018-03-07T14:34:32.174Z,51.11
2018-03-07T14:36:59.624Z,50.10
2018-03-07T14:39:27.093Z,50.91
2018-03-07T14:41:54.625Z,52.45
2018-03-07T14:44:22.036Z,52.53
2018-03-07T14:46:49.604Z,50.82
2018-03-07T14:49:17.190Z,49.08
2018-03-07T14:51:44.663Z,50.78
2018-03-07T14:54:12.195Z,52.03
2018-03-07T14:56:39.745Z,52.72
2018-03-07T14:59:07.174Z,52.26
2018-03-07T15:01:35.000Z,51.73
2018-03-07T15:04:02.399Z,51.22
2018-03-07T15:06:29.922Z,51.00
2018-03-07T15:08:57.389Z,51.14
2018-03-07T15:11:24.796Z,48.91
2018-03-07T15:13:52.217Z,47.00
2018-03-07T15:16:19.608Z,44.97
2018-03-07T15:18:47.093Z,44.71
2018-03-07T15:21:14.564Z,44.59
2018-03-07T15:23:42.334Z,44.83
2018-03-07T15:26:09.841Z,44.30
2018-03-07T15:28:37.338Z,44.50
2018-03-07T15:31:04.771Z,44.35
2018-03-07T15:33:32.241Z,44.96
2018-03-07T15:35:59.641Z,45.67
2018-03-07T15:38:27.075Z,45.95
2018-03-07T15:40:54.514Z,45.79
2018-03-07T15:43:21.963Z,45.50
2018-03-07T15:45:49.552Z,44.29
2018-03-07T15:48:16.996Z,44.93
2018-03-07T15:50:44.701Z,44.08
2018-03-07T15:53:12.115Z,41.96
2018-03-07T15:55:39.560Z,41.24
2018-03-07T15:58:07.247Z,41.82
2018-03-07T16:00:34.642Z,38.26
2018-03-07T16:03:02.069Z,36.96
2018-03-07T16:05:29.613Z,37.81
2018-03-07T16:07:57.037Z,42.11
2018-03-07T16:10:24.467Z,44.70
2018-03-07T16:12:51.887Z,46.11
2018-03-07T16:15:19.331Z,46.44
2018-03-07T16:17:46.936Z,47.38
2018-03-07T16:20:14.356Z,48.10
2018-03-07T16:22:41.777Z,48.23
2018-03-07T16:25:09.327Z,48.36
2018-03-07T16:27:36.745Z,48.56
2018-03-07T16:30:04.182Z,48.72
2018-03-07T16:32:31.608Z,48.74
2018-03-07T16:34:59.316Z,48.80
2018-03-07T16:37:26.774Z,48.96
2018-03-07T16:39:54.317Z,49.29
2018-03-07T16:42:21.808Z,50.27
2018-03-07T16:44:49.221Z,51.88
2018-03-07T16:47:16.651Z,53.19
2018-03-07T16:49:44.084Z,55.64
2018-03-07T16:52:11.497Z,56.75
2018-03-07T16:54:39.323Z,59.72
2018-03-07T16:57:06.749Z,63.81
2018-03-07T16:59:34.180Z,67.15
2018-03-07T17:02:01.602Z,69.37
2018-03-07T17:04:29.101Z,69.74
2018-03-07T17:06:56.581Z,70.93
2018-03-07T17:09:24.032Z,70.80
2018-03-07T17:11:51.435Z,71.68
2018-03-07T17:14:18.886Z,72.11
2018-03-07T17:16:46.383Z,72.11
2018-03-07T17:19:14.050Z,71.85
2018-03-07T17:21:41.516Z,72.15
2018-03-07T17:24:08.978Z,72.10
2018-03-07T17:26:36.775Z,72.81
2018-03-07T17:29:04.273Z,72.86
2018-03-07T17:31:31.749Z,72.84
2018-03-07T17:33:59.249Z,73.22
2018-03-07T17:36:26.658Z,72.90
2018-03-07T17:38:54.054Z,72.63
2018-03-07T17:41:21.507Z,72.52
2018-03-07T17:43:48.949Z,72.90
2018-03-07T17:46:16.351Z,73.34
2018-03-07T17:48:43.784Z,74.27
2018-03-07T17:51:11.443Z,74.10
2018-03-07T17:53:38.902Z,74.55
2018-03-07T17:56:06.641Z,74.27
2018-03-07T17:58:34.128Z,73.66
2018-03-07T18:01:01.576Z,73.15
2018-03-07T18:03:29.012Z,72.75
2018-03-07T18:05:56.470Z,72.59
2018-03-07T18:08:23.933Z,72.48
2018-03-07T18:10:51.345Z,71.76
2018-03-07T18:13:18.839Z,71.59
2018-03-07T18:15:46.230Z,70.73
2018-03-07T18:18:13.654Z,70.25
2018-03-07T18:20:41.386Z,69.40
2018-03-07T18:23:08.854Z,68.88
2018-03-07T18:25:36.364Z,68.64
2018-03-07T18:28:04.038Z,67.91
2018-03-07T18:30:32.276Z,67.11
2018-03-07T18:32:59.691Z,66.35
2018-03-07T18:35:27.147Z,65.87
2018-03-07T18:37:54.783Z,65.62
2018-03-07T18:40:22.265Z,65.22
2018-03-07T18:42:49.709Z,64.64
2018-03-07T18:45:17.184Z,64.67
2018-03-07T18:47:44.601Z,64.89
2018-03-07T18:50:11.995Z,64.62
2018-03-07T18:52:39.447Z,64.19
2018-03-07T18:57:40.883Z,64.09
2018-03-07T19:00:08.351Z,64.08
2018-03-07T19:02:36.166Z,64.67
2018-03-07T19:05:04.842Z,65.23
2018-03-07T19:07:32.331Z,65.31
2018-03-07T19:09:59.788Z,65.51
2018-03-07T19:12:27.650Z,65.53
2018-03-07T19:14:55.138Z,65.51
2018-03-07T19:17:22.597Z,65.80
2018-03-07T19:19:50.020Z,65.82
2018-03-07T19:22:17.614Z,65.53
2018-03-07T19:24:45.987Z,65.41
2018-03-07T19:27:13.401Z,66.13
2018-03-07T19:29:40.841Z,66.36
2018-03-07T19:32:08.286Z,66.78
2018-03-07T19:34:35.715Z,67.32
2018-03-07T19:37:03.159Z,67.75
2018-03-07T19:39:30.656Z,68.10
2018-03-07T19:41:58.064Z,68.43
2018-03-07T19:44:25.598Z,68.77
2018-03-07T19:46:53.070Z,69.01
2018-03-07T19:49:20.452Z,69.25
2018-03-07T19:51:47.904Z,69.13
2018-03-07T19:54:15.315Z,68.92
2018-03-07T19:56:42.759Z,68.74
2018-03-07T19:59:10.345Z,68.52
2018-03-07T20:01:38.312Z,68.29
2018-03-07T20:04:05.707Z,68.27
2018-03-07T20:06:33.145Z,68.93
2018-03-07T20:09:00.532Z,68.64
2018-03-07T20:11:27.980Z,67.99
2018-03-07T20:13:55.461Z,67.50
2018-03-07T20:16:22.901Z,67.20
2018-03-07T20:18:50.347Z,67.03
2018-03-07T20:21:17.789Z,66.38
2018-03-07T20:23:45.190Z,66.25
2018-03-07T20:26:12.898Z,65.30
2018-03-07T20:28:40.340Z,65.05
2018-03-07T20:31:07.789Z,65.31
2018-03-07T20:33:35.179Z,65.20
2018-03-07T20:36:02.644Z,64.21
2018-03-07T20:38:30.083Z,63.59
2018-03-07T20:40:57.540Z,63.41
2018-03-07T20:43:24.928Z,63.08
2018-03-07T20:45:52.369Z,62.52
2018-03-07T20:48:19.934Z,62.04
2018-03-07T20:50:47.358Z,61.55
2018-03-07T20:53:14.792Z,61.70
2018-03-07T20:55:42.340Z,62.13
2018-03-07T20:58:09.839Z,62.04
2018-03-07T21:00:37.321Z,61.50
2018-03-07T21:03:04.755Z,61.49
2018-03-07T21:05:32.189Z,61.36
2018-03-07T21:07:59.598Z,61.12
2018-03-07T21:10:27.033Z,60.86
2018-03-07T21:12:54.432Z,60.68
2018-03-07T21:15:21.854Z,61.17
2018-03-07T21:17:49.286Z,61.10
2018-03-07T21:20:16.735Z,61.06
2018-03-07T21:22:44.173Z,61.29
2018-03-07T21:25:11.750Z,61.43
2018-03-07T21:27:39.215Z,61.44
2018-03-07T21:30:06.656Z,61.37
2018-03-07T21:32:34.077Z,61.16
2018-03-07T21:35:01.998Z,60.86
2018-03-07T21:37:29.469Z,61.05
2018-03-07T21:43:00.043Z,61.20
2018-03-07T21:45:27.494Z,60.96
2018-03-07T21:47:54.875Z,61.12
2018-03-07T21:50:22.322Z,61.03
2018-03-07T21:55:23.476Z,60.86
2018-03-07T21:57:51.096Z,61.21
2018-03-07T22:00:18.492Z,61.46
2018-03-07T22:02:45.911Z,61.73
2018-03-07T22:05:13.304Z,62.04
2018-03-07T22:07:40.703Z,62.28
2018-03-07T22:10:08.164Z,62.23
2018-03-07T22:12:35.547Z,61.99
2018-03-07T22:15:02.984Z,61.89
2018-03-07T22:17:30.605Z,61.88
2018-03-07T22:19:57.996Z,61.75
2018-03-07T22:22:25.452Z,61.66
2018-03-07T22:24:52.943Z,61.38
2018-03-07T22:27:20.340Z,61.60
2018-03-07T22:29:47.802Z,61.51
2018-03-07T22:32:15.356Z,61.47
2018-03-07T22:34:42.753Z,61.63
2018-03-07T22:37:10.153Z,61.72
2018-03-07T22:39:37.578Z,61.92
2018-03-07T22:42:04.980Z,62.18
2018-03-07T22:44:32.416Z,62.41
2018-03-07T22:46:59.896Z,62.22
2018-03-07T22:49:27.387Z,62.68
2018-03-07T22:51:54.810Z,63.24
2018-03-07T22:54:23.020Z,63.50
2018-03-07T22:56:51.211Z,63.52
2018-03-07T22:59:18.650Z,63.53
2018-03-07T23:01:46.154Z,63.63
2018-03-07T23:04:13.608Z,63.75
2018-03-07T23:06:40.995Z,64.03
2018-03-07T23:09:08.873Z,64.46
2018-03-07T23:11:36.272Z,64.88
2018-03-07T23:14:04.107Z,64.96
2018-03-07T23:16:31.569Z,65.01
2018-03-07T23:18:59.740Z,65.11
2018-03-07T23:21:27.125Z,65.20
2018-03-07T23:23:54.522Z,65.22
2018-03-07T23:26:21.985Z,65.53
2018-03-07T23:28:49.481Z,65.72
2018-03-07T23:31:16.908Z,66.03
2018-03-07T23:33:44.314Z,65.84
2018-03-07T23:36:11.712Z,65.60
2018-03-07T23:38:39.150Z,65.61
2018-03-07T23:41:06.570Z,65.77
2018-03-07T23:43:34.069Z,65.73
2018-03-07T23:46:01.577Z,65.74
2018-03-07T23:48:28.980Z,65.57
2018-03-07T23:50:56.461Z,65.42
2018-03-07T23:53:23.877Z,65.49
2018-03-07T23:55:51.807Z,65.46
2018-03-07T23:58:19.279Z,65.73
